Airfield :
LOGIN :

Register | Disclaimer

   EN    FR    IT 

 










Legend :    VFR   Marginal VFR   IFR   Intensive IFR   Very Intensive IFR
Visi :
Ceiling :
>= 8 km
>= 3000ft
5 to 8 km
1000 to 3000 ft
1500m to 5 km
500 to 1000 ft
800 to 1500m
200 to 500 ft
< 800m
< 200 ft
Symbols :   Thunderstorms  Fog  Heavy snow  Heavy precipitations  Wind > 20 kt
SIGMETs :     Misc.  Thunderstorms  Icing  Turbulence  Mountain Waves  Volcanic Ashes






- Airport Elevation : 458 ft


LFSI - St-Dizier

CURRENT METAR :
  • 171300Z AUTO 28010KT 250V310 9999 FEW032 SCT110 11/03 Q1013

EXPIRED METARs :
  • 171230Z AUTO 30012KT 9999 FEW030/// SCT110/// BKN130/// ///CB 11/04 Q1013
  • 171200Z AUTO 29010KT 9999 FEW029/// BKN046/// BKN062/// ///CB 10/05 Q1013
  • 171130Z AUTO 30014KT 270V330 9999 SCT029/// BKN066/// OVC110/// ///CB 09/04 Q1013
  • 171100Z AUTO 31016KT 9999 FEW026/// BKN064/// //////CB 10/03 Q1013
  • 171030Z AUTO 31012KT 270V330 9999 VCTS SCT021/// BKN034/// BKN064/// ///CB 09/04 Q1013
  • 171000Z AUTO 30007KT 9999 FEW028/// BKN086/// BKN110/// ///CB 08/05 Q1014
  • 170930Z AUTO 35010KT 9999 BKN014/// BKN023/// BKN029/// ///TCU 08/05 Q1014
  • 170900Z AUTO 35005KT 300V040 9000 -RA BKN012/// BKN019/// BKN028/// ///TCU 07/05 Q1014
  • 170830Z AUTO 35007KT 320V020 9999 SCT010/// BKN020/// BKN027/// ///TCU 07/05 Q1014

TAF TAF LFSI
Valid from the 17 at 09:00 until the 18 at 09:00 UTC


170800Z 1709/1809 33010KT 9999 BKN010 BKN025
TEMPO 1709/1720 30010G25KT 4000 SHRA
PROB40
TEMPO 1710/1715 1500 TSRA BKN010CB BKN020
BECMG 1720/1721 NSC
TEMPO 1723/1807 BKN005



MET'MAP, your aeronautical weather chart ! - Copyright ORBIFLY December 2007 - Disclaimer

ORBIFLY MET'MAP TEAM :

Programming & Development : Alexandra Zaïnal
Original concept : Baudouin d'Aumeries
Technical & hardware support : Manuel Goepfert
Assistance : Marc-Olivier Méhu




SOURCES & CREDITS :

   NOAA